createdAt,value
2022-09-06T00:00:09.254Z,4.20
2022-09-06T00:02:38.279Z,4.15
2022-09-06T00:05:09.840Z,4.40
2022-09-06T00:07:38.492Z,3.92
2022-09-06T00:10:07.649Z,3.55
2022-09-06T00:12:36.476Z,3.83
2022-09-06T00:15:05.344Z,4.10
2022-09-06T00:17:33.881Z,4.50
2022-09-06T00:20:02.542Z,3.95
2022-09-06T00:22:32.389Z,4.10
2022-09-06T00:25:00.792Z,4.30
2022-09-06T00:27:29.280Z,4.85
2022-09-06T00:29:57.632Z,4.78
2022-09-06T00:32:26.118Z,4.43
2022-09-06T00:34:54.529Z,4.75
2022-09-06T00:37:22.856Z,4.57
2022-09-06T00:39:52.637Z,4.80
2022-09-06T00:42:20.990Z,4.45
2022-09-06T00:44:50.564Z,4.53
2022-09-06T00:47:19.262Z,5.05
2022-09-06T00:49:50.691Z,3.92
2022-09-06T00:52:20.395Z,5.13
2022-09-06T00:54:49.876Z,4.20
2022-09-06T00:57:20.023Z,4.13
2022-09-06T00:59:49.325Z,5.50
2022-09-06T01:02:17.765Z,4.13
2022-09-06T01:04:46.501Z,4.53
2022-09-06T01:07:23.465Z,4.07
2022-09-06T01:10:06.870Z,3.80
2022-09-06T01:12:49.755Z,4.18
2022-09-06T01:15:29.775Z,5.15
2022-09-06T01:18:10.200Z,4.30
2022-09-06T01:20:58.833Z,4.43
2022-09-06T01:24:06.329Z,5.20
2022-09-06T01:27:05.720Z,3.85
2022-09-06T01:29:41.705Z,4.40
2022-09-06T01:32:16.557Z,5.72
2022-09-06T01:34:50.004Z,4.53
2022-09-06T01:37:21.717Z,4.75
2022-09-06T01:39:50.143Z,4.85
2022-09-06T01:42:21.135Z,4.55
2022-09-06T01:44:54.106Z,4.90
2022-09-06T01:47:28.876Z,4.72
2022-09-06T01:50:12.367Z,5.18
2022-09-06T01:52:49.229Z,4.82
2022-09-06T01:55:27.777Z,4.80
2022-09-06T01:58:12.559Z,4.63
2022-09-06T02:00:49.979Z,4.47
2022-09-06T02:03:28.976Z,5.40
2022-09-06T02:06:00.801Z,4.72
2022-09-06T02:08:33.726Z,4.13
2022-09-06T02:11:04.649Z,4.65
2022-09-06T02:13:37.398Z,4.68
2022-09-06T02:16:09.560Z,4.78
2022-09-06T02:18:41.621Z,4.95
2022-09-06T02:21:11.803Z,4.95
2022-09-06T02:23:41.840Z,4.22
2022-09-06T02:26:13.657Z,6.40
2022-09-06T02:28:42.025Z,5.70
2022-09-06T02:31:17.736Z,4.53
2022-09-06T02:33:48.525Z,4.75
2022-09-06T02:36:17.034Z,5.13
2022-09-06T02:38:46.968Z,4.25
2022-09-06T02:41:18.565Z,4.80
2022-09-06T02:43:46.761Z,4.72
2022-09-06T02:46:17.044Z,5.22
2022-09-06T02:48:45.539Z,5.30
2022-09-06T02:51:13.961Z,6.05
2022-09-06T02:53:42.754Z,4.55
2022-09-06T02:56:11.213Z,5.40
2022-09-06T02:58:40.227Z,4.57
2022-09-06T03:01:09.208Z,5.72
2022-09-06T03:03:39.007Z,4.97
2022-09-06T03:06:07.717Z,4.93
2022-09-06T03:08:36.608Z,5.05
2022-09-06T03:11:04.831Z,4.25
2022-09-06T03:13:33.097Z,4.88
2022-09-06T03:16:01.956Z,5.05
2022-09-06T03:18:31.893Z,4.88
2022-09-06T03:21:02.066Z,5.47
2022-09-06T03:23:30.784Z,5.80
2022-09-06T03:25:59.301Z,5.32
2022-09-06T03:28:28.013Z,4.97
2022-09-06T03:30:56.440Z,5.60
2022-09-06T03:33:25.137Z,4.93
2022-09-06T03:35:55.267Z,5.28
2022-09-06T03:38:25.953Z,5.28
2022-09-06T03:40:54.698Z,4.25
2022-09-06T03:43:25.026Z,5.15
2022-09-06T03:45:55.145Z,5.55
2022-09-06T03:48:24.968Z,4.90
2022-09-06T03:50:55.491Z,5.30
2022-09-06T03:53:26.404Z,5.13
2022-09-06T03:55:56.159Z,4.88
2022-09-06T03:58:25.547Z,4.68
2022-09-06T04:01:03.774Z,6.03
2022-09-06T04:03:32.201Z,4.55
2022-09-06T04:06:00.370Z,5.20
2022-09-06T04:08:30.313Z,5.55
2022-09-06T04:10:59.839Z,5.85
2022-09-06T04:13:29.219Z,5.20
2022-09-06T04:15:57.534Z,5.50
2022-09-06T04:18:26.199Z,4.95
2022-09-06T04:20:56.405Z,5.47
2022-09-06T04:23:25.636Z,5.93
2022-09-06T04:25:56.726Z,5.88
2022-09-06T04:28:26.614Z,5.28
2022-09-06T04:30:57.464Z,4.88
2022-09-06T04:33:29.679Z,5.30
2022-09-06T04:35:59.627Z,5.22
2022-09-06T04:38:29.411Z,5.63
2022-09-06T04:40:59.416Z,5.03
2022-09-06T04:43:27.810Z,5.28
2022-09-06T04:45:56.172Z,5.78
2022-09-06T04:48:24.576Z,4.97
2022-09-06T04:50:52.939Z,5.00
2022-09-06T04:53:21.209Z,4.50
2022-09-06T04:55:49.591Z,5.80
2022-09-06T04:58:19.284Z,5.38
2022-09-06T05:00:47.947Z,5.30
2022-09-06T05:03:16.363Z,5.15
2022-09-06T05:05:44.698Z,5.95
2022-09-06T05:08:13.157Z,5.65
2022-09-06T05:10:41.446Z,5.85
2022-09-06T05:13:09.798Z,4.55
2022-09-06T05:15:39.709Z,5.57
2022-09-06T05:18:08.067Z,5.28
2022-09-06T05:20:37.198Z,5.47
2022-09-06T05:23:05.489Z,5.72
2022-09-06T05:25:33.765Z,5.70
2022-09-06T05:28:01.875Z,4.65
2022-09-06T05:30:30.101Z,4.95
2022-09-06T05:32:59.910Z,5.60
2022-09-06T05:35:28.012Z,5.20
2022-09-06T05:37:56.314Z,5.50
2022-09-06T05:40:24.543Z,6.07
2022-09-06T05:42:52.712Z,5.75
2022-09-06T05:45:21.399Z,5.72
2022-09-06T05:47:49.753Z,4.75
2022-09-06T05:50:19.670Z,5.07
2022-09-06T05:52:48.226Z,4.97
2022-09-06T05:55:16.635Z,4.57
2022-09-06T05:57:44.940Z,4.47
2022-09-06T06:00:14.701Z,4.93
2022-09-06T06:02:43.042Z,5.63
2022-09-06T06:05:11.435Z,4.38
2022-09-06T06:07:41.388Z,5.38
2022-09-06T06:10:10.562Z,5.28
2022-09-06T06:12:38.885Z,5.15
2022-09-06T06:15:08.025Z,4.70
2022-09-06T06:17:36.274Z,4.53
2022-09-06T06:20:05.018Z,6.05
2022-09-06T06:22:33.322Z,5.03
2022-09-06T06:25:03.260Z,5.18
2022-09-06T06:27:34.108Z,5.90
2022-09-06T06:30:02.308Z,5.22
2022-09-06T06:32:30.487Z,4.95
2022-09-06T06:34:58.866Z,4.82
2022-09-06T06:37:27.108Z,4.75
2022-09-06T06:39:55.661Z,5.68
2022-09-06T06:42:25.408Z,5.85
2022-09-06T06:44:54.045Z,5.20
2022-09-06T06:47:22.308Z,5.43
2022-09-06T06:49:50.580Z,4.82
2022-09-06T06:52:21.464Z,4.85
2022-09-06T06:54:50.271Z,5.60
2022-09-06T06:57:18.489Z,6.05
2022-09-06T06:59:48.214Z,5.38
2022-09-06T07:02:17.863Z,6.20
2022-09-06T07:04:46.160Z,4.50
2022-09-06T07:12:46.520Z,5.47
2022-09-06T07:15:16.388Z,5.38
2022-09-06T07:17:44.880Z,5.45
2022-09-06T07:20:13.980Z,4.93
2022-09-06T07:22:43.145Z,5.80
2022-09-06T07:25:14.447Z,6.05
2022-09-06T07:30:16.087Z,5.60
2022-09-06T07:32:44.386Z,5.68
2022-09-06T07:35:14.051Z,4.85
2022-09-06T07:37:42.662Z,5.22
2022-09-06T07:40:12.183Z,5.50
2022-09-06T07:42:40.567Z,5.72
2022-09-06T07:45:10.037Z,6.40
2022-09-06T07:53:23.298Z,5.43
2022-09-06T07:56:00.418Z,5.28
2022-09-06T07:58:30.210Z,5.90
2022-09-06T08:01:17.394Z,6.65
2022-09-06T08:03:48.493Z,4.50
2022-09-06T08:06:16.848Z,5.65
2022-09-06T08:09:01.176Z,5.40
2022-09-06T08:11:31.219Z,4.93
2022-09-06T08:14:02.812Z,5.72
2022-09-06T08:16:33.001Z,5.55
2022-09-06T08:19:04.349Z,6.18
2022-09-06T08:21:35.207Z,5.80
2022-09-06T08:24:05.315Z,5.25
2022-09-06T08:26:35.965Z,5.65
2022-09-06T08:29:06.856Z,5.43
2022-09-06T08:31:37.165Z,5.38
2022-09-06T08:34:06.933Z,6.03
2022-09-06T08:36:35.793Z,5.68
2022-09-06T08:39:06.114Z,5.03
2022-09-06T08:41:41.580Z,5.60
2022-09-06T08:47:04.646Z,5.63
2022-09-06T08:49:38.224Z,5.53
2022-09-06T08:52:54.459Z,4.30
2022-09-06T08:55:37.761Z,4.55
2022-09-06T08:58:17.579Z,6.20
2022-09-06T09:00:51.713Z,5.03
2022-09-06T09:03:25.135Z,4.88
2022-09-06T09:05:55.353Z,6.03
2022-09-06T09:08:27.432Z,5.85
2022-09-06T09:10:59.830Z,6.07
2022-09-06T09:13:35.062Z,5.55
2022-09-06T09:16:03.802Z,5.85
2022-09-06T09:18:35.258Z,5.68
2022-09-06T09:21:05.882Z,5.05
2022-09-06T09:23:34.493Z,5.18
2022-09-06T09:26:07.201Z,5.03
2022-09-06T09:28:35.907Z,4.80
2022-09-06T09:31:06.773Z,4.55
2022-09-06T09:33:38.690Z,4.90
2022-09-06T09:36:11.267Z,5.28
2022-09-06T09:38:44.115Z,4.22
2022-09-06T09:41:25.328Z,4.85
2022-09-06T09:44:04.211Z,4.70
2022-09-06T09:46:34.367Z,5.10
2022-09-06T09:49:06.664Z,5.13
2022-09-06T09:51:40.360Z,4.30
2022-09-06T09:54:10.627Z,5.15
2022-09-06T09:56:43.871Z,5.88
2022-09-06T09:59:25.162Z,5.97
2022-09-06T10:01:56.612Z,5.20
2022-09-06T10:04:48.780Z,5.85
2022-09-06T10:07:21.070Z,4.78
2022-09-06T10:09:51.012Z,5.20
2022-09-06T10:12:28.583Z,4.05
2022-09-06T10:14:57.794Z,5.65
2022-09-06T10:17:32.069Z,4.82
2022-09-06T10:20:03.648Z,4.88
2022-09-06T10:22:36.533Z,6.93
2022-09-06T10:25:39.793Z,5.90
2022-09-06T10:28:31.798Z,6.00
2022-09-06T10:31:18.829Z,5.13
2022-09-06T10:33:57.893Z,5.47
2022-09-06T10:36:33.269Z,5.22
2022-09-06T10:39:10.368Z,5.38
2022-09-06T10:42:02.606Z,5.35
2022-09-06T10:44:46.847Z,5.80
2022-09-06T10:47:16.834Z,5.50
2022-09-06T10:49:47.814Z,4.63
2022-09-06T10:52:22.325Z,7.93
2022-09-06T10:54:53.025Z,6.38
2022-09-06T11:00:14.692Z,4.65
2022-09-06T11:02:48.962Z,6.07
2022-09-06T11:11:07.716Z,5.35
2022-09-06T11:13:35.912Z,5.00
2022-09-06T11:16:10.603Z,4.95
2022-09-06T11:18:43.280Z,5.75
2022-09-06T11:21:38.574Z,5.75
2022-09-06T11:24:13.418Z,5.60
2022-09-06T11:26:56.540Z,6.45
2022-09-06T11:29:27.190Z,5.70
2022-09-06T11:34:54.932Z,5.10
2022-09-06T11:37:29.192Z,4.53
2022-09-06T11:40:29.405Z,5.80
2022-09-06T11:43:20.231Z,6.32
2022-09-06T11:45:51.072Z,4.80
2022-09-06T11:48:35.429Z,5.10
2022-09-06T11:51:07.873Z,5.20
2022-09-06T11:53:57.888Z,5.47
2022-09-06T11:56:32.707Z,4.68
2022-09-06T11:59:09.633Z,5.10
2022-09-06T12:01:41.032Z,5.32
2022-09-06T12:04:12.433Z,4.93
2022-09-06T12:06:42.952Z,4.88
2022-09-06T12:09:31.584Z,5.13
2022-09-06T12:12:01.141Z,4.32
2022-09-06T12:14:42.553Z,4.82
2022-09-06T12:17:28.795Z,5.35
2022-09-06T12:20:07.146Z,6.00
2022-09-06T12:22:59.381Z,4.85
2022-09-06T12:25:52.620Z,5.18
2022-09-06T12:28:47.317Z,5.57
2022-09-06T12:31:25.606Z,4.72
2022-09-06T12:33:54.957Z,4.60
2022-09-06T12:36:29.931Z,4.85
2022-09-06T12:39:00.428Z,4.22
2022-09-06T12:41:30.658Z,5.18
2022-09-06T12:44:02.950Z,5.18
2022-09-06T12:46:34.943Z,5.13
2022-09-06T12:49:05.972Z,4.68
2022-09-06T12:51:34.926Z,4.30
2022-09-06T12:54:05.325Z,4.50
2022-09-06T12:56:35.195Z,4.72
2022-09-06T12:59:17.345Z,4.50
2022-09-06T13:01:53.647Z,4.20
2022-09-06T13:04:32.496Z,4.15
2022-09-06T13:07:02.143Z,4.55
2022-09-06T13:09:34.684Z,4.72
2022-09-06T13:12:09.371Z,4.00
2022-09-06T13:14:39.197Z,4.75
2022-09-06T13:17:09.064Z,4.05
2022-09-06T13:19:39.303Z,4.63
2022-09-06T13:22:11.184Z,4.07
2022-09-06T13:24:47.270Z,4.95
2022-09-06T13:27:28.164Z,4.90
2022-09-06T13:29:57.930Z,4.70
2022-09-06T13:32:28.535Z,4.43
2022-09-06T13:34:58.780Z,4.70
2022-09-06T13:37:28.400Z,4.93
2022-09-06T13:39:57.713Z,5.00
2022-09-06T13:42:28.936Z,4.20
2022-09-06T13:45:01.933Z,4.72
2022-09-06T13:47:31.904Z,4.88
2022-09-06T13:50:00.441Z,4.72
2022-09-06T13:52:29.426Z,4.32
2022-09-06T13:54:57.759Z,3.95
2022-09-06T13:57:26.177Z,4.47
2022-09-06T13:59:54.633Z,3.05
2022-09-06T14:02:25.078Z,3.67
2022-09-06T14:04:54.889Z,3.60
2022-09-06T14:07:23.230Z,4.88
2022-09-06T14:09:51.744Z,4.10
2022-09-06T14:12:20.136Z,4.53
2022-09-06T14:14:48.702Z,4.18
2022-09-06T14:17:17.171Z,3.65
2022-09-06T14:20:01.056Z,3.97
2022-09-06T14:22:29.419Z,4.38
2022-09-06T14:24:57.693Z,4.28
2022-09-06T14:27:26.382Z,4.35
2022-09-06T14:29:54.753Z,4.20
2022-09-06T14:32:23.153Z,4.80
2022-09-06T14:34:51.617Z,5.10
2022-09-06T14:37:22.053Z,3.80
2022-09-06T14:39:50.549Z,3.90
2022-09-06T14:42:19.036Z,4.05
2022-09-06T14:44:47.470Z,4.38
2022-09-06T14:47:16.904Z,3.85
2022-09-06T14:49:45.399Z,4.90
2022-09-06T14:52:16.816Z,4.10
2022-09-06T14:55:02.767Z,3.85
2022-09-06T14:57:31.280Z,4.03
2022-09-06T15:00:00.840Z,3.80
2022-09-06T15:02:29.819Z,4.18
2022-09-06T15:05:15.480Z,4.13
2022-09-06T15:08:01.918Z,4.88
2022-09-06T15:11:20.877Z,4.20
2022-09-06T15:13:49.456Z,4.82
2022-09-06T15:16:32.720Z,4.93
2022-09-06T15:19:22.971Z,4.43
2022-09-06T15:21:57.366Z,4.72
2022-09-06T15:24:26.314Z,3.90
2022-09-06T15:26:56.976Z,4.15
2022-09-06T15:29:27.031Z,4.07
2022-09-06T15:31:55.440Z,3.80
2022-09-06T15:34:26.118Z,4.57
2022-09-06T15:36:56.773Z,4.18
2022-09-06T15:39:25.463Z,4.25
2022-09-06T15:41:57.224Z,3.80
2022-09-06T15:44:26.467Z,4.38
2022-09-06T15:46:57.692Z,4.63
2022-09-06T15:49:33.353Z,3.90
2022-09-06T15:52:03.629Z,4.70
2022-09-06T15:54:49.262Z,4.88
2022-09-06T15:57:19.368Z,4.68
2022-09-06T15:59:47.962Z,4.72
2022-09-06T16:02:19.319Z,3.92
2022-09-06T16:04:47.768Z,4.43
2022-09-06T16:07:53.781Z,4.47
2022-09-06T16:10:22.184Z,4.35
2022-09-06T16:12:57.522Z,4.50
2022-09-06T16:15:36.098Z,4.47
2022-09-06T16:18:05.578Z,4.88
2022-09-06T16:20:33.888Z,5.60
2022-09-06T16:23:02.259Z,5.28
2022-09-06T16:25:32.166Z,5.25
2022-09-06T16:28:02.683Z,4.53
2022-09-06T16:30:31.228Z,4.80
2022-09-06T16:32:59.679Z,4.10
2022-09-06T16:36:03.104Z,3.83
2022-09-06T16:38:31.904Z,4.07
2022-09-06T16:41:01.157Z,4.18
2022-09-06T16:43:35.234Z,4.60
2022-09-06T16:46:05.478Z,4.57
2022-09-06T16:48:34.316Z,4.13
2022-09-06T16:51:11.404Z,4.68
2022-09-06T16:53:41.707Z,4.05
2022-09-06T16:56:10.714Z,4.65
2022-09-06T16:58:41.986Z,4.05
2022-09-06T17:01:11.445Z,4.82
2022-09-06T17:03:47.229Z,4.38
2022-09-06T17:06:16.408Z,3.55
2022-09-06T17:08:45.629Z,4.57
2022-09-06T17:11:16.254Z,3.95
2022-09-06T17:13:49.022Z,3.72
2022-09-06T17:17:15.440Z,3.35
2022-09-06T17:20:15.872Z,3.38
2022-09-06T17:22:44.301Z,3.47
2022-09-06T17:25:13.953Z,3.35
2022-09-06T17:27:42.259Z,3.00
2022-09-06T17:30:13.401Z,3.78
2022-09-06T17:32:41.823Z,3.88
2022-09-06T17:35:10.417Z,4.18
2022-09-06T17:37:38.780Z,3.22
2022-09-06T17:40:08.386Z,3.83
2022-09-06T17:42:37.183Z,3.63
2022-09-06T17:45:05.905Z,3.20
2022-09-06T17:47:36.175Z,3.03
2022-09-06T17:50:06.827Z,3.40
2022-09-06T17:52:39.109Z,3.30
2022-09-06T17:55:08.479Z,2.67
2022-09-06T17:57:37.207Z,3.30
2022-09-06T18:00:14.093Z,3.30
2022-09-06T18:02:44.523Z,3.22
2022-09-06T18:05:12.946Z,3.28
2022-09-06T18:07:42.079Z,3.35
2022-09-06T18:10:11.270Z,2.90
2022-09-06T18:12:39.686Z,3.70
2022-09-06T18:15:09.207Z,3.90
2022-09-06T18:17:37.725Z,3.75
2022-09-06T18:20:09.415Z,3.08
2022-09-06T18:22:39.703Z,3.67
2022-09-06T18:25:09.079Z,3.20
2022-09-06T18:27:37.410Z,3.50
2022-09-06T18:30:06.384Z,3.33
2022-09-06T18:32:34.774Z,3.15
2022-09-06T18:35:03.330Z,2.85
2022-09-06T18:37:36.302Z,2.92
2022-09-06T18:40:05.253Z,3.05
2022-09-06T18:42:34.560Z,3.00
2022-09-06T18:45:03.026Z,3.17
2022-09-06T18:47:31.391Z,2.92
2022-09-06T18:50:00.308Z,3.97
2022-09-06T18:52:28.643Z,2.20
2022-09-06T18:55:54.943Z,4.32
2022-09-06T18:58:33.789Z,3.95
2022-09-06T19:01:45.571Z,3.60
2022-09-06T19:04:40.229Z,3.85
2022-09-06T19:07:08.621Z,4.03
2022-09-06T19:09:37.196Z,3.83
2022-09-06T19:12:07.616Z,4.30
2022-09-06T19:14:43.126Z,4.05
2022-09-06T19:17:11.658Z,3.17
2022-09-06T19:19:57.165Z,3.20
2022-09-06T19:22:48.261Z,2.88
2022-09-06T19:25:16.857Z,3.30
2022-09-06T19:27:48.665Z,2.97
2022-09-06T19:30:20.007Z,3.05
2022-09-06T19:32:48.950Z,3.75
2022-09-06T19:35:18.813Z,3.45
2022-09-06T19:37:47.845Z,3.28
2022-09-06T19:40:16.335Z,3.72
2022-09-06T19:42:54.373Z,3.63
2022-09-06T19:45:24.308Z,3.03
2022-09-06T19:47:52.713Z,3.00
2022-09-06T19:50:21.050Z,3.58
2022-09-06T19:52:49.640Z,3.97
2022-09-06T19:55:18.212Z,3.30
2022-09-06T19:57:46.809Z,3.00
2022-09-06T20:00:16.912Z,3.38
2022-09-06T20:02:47.226Z,3.05
2022-09-06T20:05:17.094Z,4.00
2022-09-06T20:07:45.554Z,3.85
2022-09-06T20:10:13.896Z,4.03
2022-09-06T20:12:42.471Z,4.00
2022-09-06T20:15:12.271Z,3.58
2022-09-06T20:17:40.879Z,3.28
2022-09-06T20:20:12.285Z,3.50
2022-09-06T20:22:40.626Z,2.92
2022-09-06T20:25:09.781Z,3.25
2022-09-06T20:27:42.546Z,2.83
2022-09-06T20:30:31.814Z,3.40
2022-09-06T20:36:35.277Z,3.50
2022-09-06T20:39:04.111Z,3.55
2022-09-06T20:41:33.901Z,3.55
2022-09-06T20:44:02.930Z,4.10
2022-09-06T20:46:33.469Z,3.78
2022-09-06T20:49:04.747Z,3.20
2022-09-06T20:51:35.714Z,3.80
2022-09-06T20:54:05.648Z,3.60
2022-09-06T20:56:35.819Z,4.07
2022-09-06T20:59:07.621Z,3.78
2022-09-06T21:01:37.719Z,3.65
2022-09-06T21:04:08.055Z,3.25
2022-09-06T21:06:49.779Z,3.25
2022-09-06T21:09:18.238Z,3.28
2022-09-06T21:11:46.863Z,3.38
2022-09-06T21:14:15.731Z,2.72
2022-09-06T21:16:44.024Z,2.78
2022-09-06T21:19:13.304Z,3.88
2022-09-06T21:21:43.631Z,2.75
2022-09-06T21:24:13.016Z,3.67
2022-09-06T21:26:43.857Z,3.38
2022-09-06T21:29:12.886Z,3.40
2022-09-06T21:31:41.350Z,3.78
2022-09-06T21:34:16.988Z,5.28
2022-09-06T21:36:47.205Z,4.05
2022-09-06T21:39:16.240Z,4.00
2022-09-06T21:41:45.852Z,4.05
2022-09-06T21:44:14.643Z,4.20
2022-09-06T21:46:43.576Z,2.55
2022-09-06T21:49:14.057Z,3.08
2022-09-06T21:51:42.943Z,2.70
2022-09-06T21:54:12.918Z,3.10
2022-09-06T21:56:41.786Z,3.45
2022-09-06T21:59:11.122Z,3.28
2022-09-06T22:01:40.711Z,2.92
2022-09-06T22:04:09.477Z,3.03
2022-09-06T22:06:37.942Z,3.05
2022-09-06T22:09:10.910Z,3.15
2022-09-06T22:11:42.824Z,2.50
2022-09-06T22:14:12.772Z,3.10
2022-09-06T22:16:42.302Z,3.13
2022-09-06T22:19:11.529Z,3.50
2022-09-06T22:21:40.735Z,3.47
2022-09-06T22:24:11.048Z,3.55
2022-09-06T22:26:42.090Z,3.30
2022-09-06T22:29:12.391Z,3.40
2022-09-06T22:31:41.325Z,3.70
2022-09-06T22:34:10.472Z,3.05
2022-09-06T22:36:39.000Z,3.33
2022-09-06T22:39:07.952Z,3.47
2022-09-06T22:41:36.610Z,3.67
2022-09-06T22:44:07.396Z,3.65
2022-09-06T22:46:35.843Z,3.70
2022-09-06T22:49:05.508Z,3.60
2022-09-06T22:51:34.255Z,3.33
2022-09-06T22:54:02.735Z,3.42
2022-09-06T22:56:31.137Z,3.40
2022-09-06T22:59:00.977Z,3.15
2022-09-06T23:01:32.856Z,2.47
2022-09-06T23:04:01.285Z,3.13
2022-09-06T23:06:29.847Z,3.58
2022-09-06T23:08:58.285Z,3.53
2022-09-06T23:11:27.764Z,2.88
2022-09-06T23:13:57.673Z,3.17
2022-09-06T23:16:27.606Z,3.38
2022-09-06T23:18:57.922Z,3.30
2022-09-06T23:21:27.652Z,3.03
2022-09-06T23:23:57.389Z,3.47
2022-09-06T23:26:30.417Z,2.90
2022-09-06T23:28:58.834Z,3.45
2022-09-06T23:31:29.383Z,3.13
2022-09-06T23:34:01.130Z,3.55
2022-09-06T23:36:29.624Z,2.90
2022-09-06T23:38:58.730Z,3.20
2022-09-06T23:41:27.325Z,2.70
2022-09-06T23:43:56.137Z,3.10
2022-09-06T23:46:24.551Z,3.58
2022-09-06T23:48:52.813Z,3.58
2022-09-06T23:51:22.826Z,4.15
2022-09-06T23:53:51.229Z,3.85
2022-09-06T23:56:20.828Z,3.50
2022-09-06T23:58:49.341Z,3.67
